createdAt,value
2018-02-22T06:37:22.314Z,1.80
2018-02-22T06:39:52.470Z,1.89
2018-02-22T06:42:21.770Z,1.97
2018-02-22T06:44:52.463Z,2.01
2018-02-22T06:47:21.830Z,2.03
2018-02-22T06:49:51.269Z,1.97
2018-02-22T06:52:20.793Z,2.02
2018-02-22T06:54:50.524Z,2.04
2018-02-22T06:57:20.132Z,2.03
2018-02-22T06:59:49.670Z,1.99
2018-02-22T07:02:18.856Z,1.95
2018-02-22T07:04:48.224Z,1.98
2018-02-22T07:07:17.773Z,1.99
2018-02-22T07:09:47.114Z,2.00
2018-02-22T07:12:16.739Z,1.98
2018-02-22T07:14:50.492Z,1.98
2018-02-22T07:17:23.120Z,2.02
2018-02-22T07:19:53.158Z,1.98
2018-02-22T07:22:22.919Z,1.92
2018-02-22T07:24:54.855Z,1.91
2018-02-22T07:27:24.857Z,1.92
2018-02-22T07:29:54.368Z,1.96
2018-02-22T07:32:24.027Z,1.97
2018-02-22T07:34:55.806Z,1.97
2018-02-22T07:37:29.941Z,1.94
2018-02-22T07:40:03.809Z,1.92
2018-02-22T07:42:33.885Z,1.93
2018-02-22T07:45:03.334Z,1.93
2018-02-22T07:47:32.825Z,1.91
2018-02-22T07:50:02.611Z,1.91
2018-02-22T07:52:32.126Z,1.96
2018-02-22T07:55:01.818Z,1.90
2018-02-22T07:57:31.198Z,1.88
2018-02-22T08:00:00.845Z,1.88
2018-02-22T08:02:30.044Z,1.89
2018-02-22T08:04:59.803Z,1.87
2018-02-22T08:07:29.286Z,1.86
2018-02-22T08:09:58.862Z,1.87
2018-02-22T08:12:43.715Z,1.92
2018-02-22T08:15:14.935Z,1.89
2018-02-22T08:17:44.924Z,1.85
2018-02-22T08:20:15.628Z,1.88
2018-02-22T08:22:53.198Z,1.85
2018-02-22T08:28:09.856Z,1.90
2018-02-22T08:30:42.925Z,1.85
2018-02-22T08:33:12.952Z,1.85
2018-02-22T08:35:44.647Z,1.84
2018-02-22T08:38:16.731Z,1.83
2018-02-22T08:40:48.769Z,1.85
2018-02-22T08:43:19.716Z,1.87
2018-02-22T08:45:48.910Z,1.88
2018-02-22T08:48:18.393Z,1.85
2018-02-22T08:50:48.919Z,1.84
2018-02-22T08:53:18.321Z,1.85
2018-02-22T08:55:47.791Z,1.87
2018-02-22T08:58:16.846Z,1.87
2018-02-22T09:00:45.960Z,1.87
2018-02-22T09:03:15.251Z,1.92
2018-02-22T09:05:50.873Z,1.89
2018-02-22T09:08:27.835Z,1.93
2018-02-22T09:10:57.533Z,1.90
2018-02-22T09:13:26.882Z,1.88
2018-02-22T09:15:56.406Z,1.89
2018-02-22T09:18:25.820Z,1.91
2018-02-22T09:20:57.823Z,1.88
2018-02-22T09:23:27.250Z,1.91
2018-02-22T09:25:56.739Z,1.92
2018-02-22T09:28:25.930Z,1.90
2018-02-22T09:30:55.254Z,1.89
2018-02-22T09:33:24.802Z,1.92
2018-02-22T09:35:54.108Z,1.93
2018-02-22T09:38:23.787Z,1.97
2018-02-22T09:40:53.293Z,1.99
2018-02-22T09:43:29.847Z,1.96
2018-02-22T09:46:04.957Z,1.96
2018-02-22T09:48:40.834Z,1.96
2018-02-22T09:51:15.207Z,1.97
2018-02-22T09:56:58.117Z,2.01
2018-02-22T09:59:35.773Z,2.01
2018-02-22T10:02:09.724Z,2.00
2018-02-22T10:04:41.615Z,1.97
2018-02-22T10:07:11.279Z,1.99
2018-02-22T10:09:41.226Z,2.02
2018-02-22T10:12:10.773Z,2.03
2018-02-22T10:14:39.936Z,2.02
2018-02-22T10:17:10.989Z,2.03
2018-02-22T10:19:42.827Z,2.02
2018-02-22T10:22:12.285Z,2.04
2018-02-22T10:24:41.908Z,2.04
2018-02-22T10:27:11.210Z,2.06
2018-02-22T10:29:43.398Z,2.06
2018-02-22T10:32:18.100Z,2.10
2018-02-22T10:34:50.791Z,2.11
2018-02-22T10:37:20.446Z,2.09
2018-02-22T10:39:49.839Z,2.10
2018-02-22T10:42:19.808Z,2.13
2018-02-22T10:44:49.350Z,2.18
2018-02-22T10:47:19.494Z,2.17
2018-02-22T10:49:48.863Z,2.16
2018-02-22T10:52:18.366Z,2.06
2018-02-22T10:54:48.004Z,2.18
2018-02-22T10:57:17.440Z,2.21
2018-02-22T10:59:47.118Z,2.21
2018-02-22T11:15:30.547Z,2.32
2018-02-22T11:18:02.717Z,2.33
2018-02-22T11:20:34.701Z,2.34
2018-02-22T11:23:04.823Z,2.33
2018-02-22T11:25:34.948Z,2.37
2018-02-22T11:28:04.685Z,2.38
2018-02-22T11:30:34.229Z,2.40
2018-02-22T11:33:03.975Z,2.41
2018-02-22T11:35:35.627Z,2.43
2018-02-22T11:38:07.707Z,2.45
2018-02-22T11:40:40.780Z,2.49
2018-02-22T11:43:13.688Z,2.47
2018-02-22T11:45:46.696Z,2.49
2018-02-22T11:48:19.000Z,2.49
2018-02-22T11:50:55.629Z,2.49
2018-02-22T11:53:25.267Z,2.53
2018-02-22T11:55:56.767Z,2.58
2018-02-22T11:58:29.033Z,2.56
2018-02-22T12:01:01.716Z,2.60
2018-02-22T12:03:35.717Z,2.62
2018-02-22T12:06:08.789Z,2.64
2018-02-22T12:08:39.919Z,2.64
2018-02-22T12:13:11.810Z,2.69
2018-02-22T12:15:42.639Z,2.70
2018-02-22T12:18:12.648Z,2.71
2018-02-22T12:20:43.358Z,2.73
2018-02-22T12:23:13.896Z,2.75
2018-02-22T12:25:44.556Z,2.77
2018-02-22T12:28:16.402Z,2.79
2018-02-22T12:30:51.636Z,2.79
2018-02-22T12:33:24.058Z,2.80
2018-02-22T12:35:54.513Z,2.85
2018-02-22T12:38:26.058Z,2.86
2018-02-22T12:40:58.699Z,2.89
2018-02-22T12:43:31.748Z,2.89
2018-02-22T12:46:02.012Z,2.90
2018-02-22T12:48:31.882Z,2.93
2018-02-22T12:51:01.620Z,2.92
2018-02-22T13:04:35.604Z,3.00
2018-02-22T13:07:06.562Z,3.02
2018-02-22T13:17:57.979Z,3.09
2018-02-22T13:20:27.829Z,3.10
2018-02-22T13:22:58.539Z,3.10
2018-02-22T13:41:03.565Z,3.20
2018-02-22T13:43:33.606Z,3.22
2018-02-22T13:46:47.945Z,3.22
2018-02-22T13:49:23.935Z,3.26
2018-02-22T13:51:54.503Z,3.26
2018-02-22T13:54:25.817Z,3.28
2018-02-22T13:57:01.424Z,3.29
2018-02-22T13:59:33.413Z,3.33
2018-02-22T14:02:11.648Z,3.33
2018-02-22T14:04:44.826Z,3.33
2018-02-22T14:07:18.636Z,3.34
2018-02-22T14:09:51.295Z,3.35
2018-02-22T14:12:24.248Z,3.37
2018-02-22T14:14:58.733Z,3.38
2018-02-22T14:17:32.082Z,3.43
2018-02-22T14:29:10.683Z,3.46
2018-02-22T14:31:40.608Z,3.49
2018-02-22T14:34:10.757Z,3.49
2018-02-22T14:36:40.842Z,3.48
2018-02-22T14:39:12.451Z,3.50
2018-02-22T14:41:45.069Z,3.51
2018-02-22T14:44:17.852Z,3.53
2018-02-22T14:46:50.710Z,3.54
2018-02-22T14:49:23.656Z,3.57
2018-02-22T15:01:43.723Z,3.60
2018-02-22T15:04:17.676Z,3.61
2018-02-22T15:06:50.747Z,3.60
2018-02-22T15:09:22.702Z,3.61
2018-02-22T15:11:54.793Z,3.61
2018-02-22T15:14:26.754Z,3.59
2018-02-22T15:17:03.417Z,3.63
2018-02-22T15:19:32.915Z,3.63
2018-02-22T15:22:02.718Z,3.63
2018-02-22T15:27:17.442Z,3.66
2018-02-22T15:29:47.288Z,3.67
2018-02-22T15:32:16.978Z,3.67
2018-02-22T15:34:46.723Z,3.66
2018-02-22T15:37:16.254Z,3.65
2018-02-22T15:42:28.926Z,3.67
2018-02-22T15:54:27.667Z,3.70
2018-02-22T15:56:57.590Z,3.68
2018-02-22T15:59:27.481Z,3.68
2018-02-22T16:01:58.934Z,3.69
2018-02-22T16:04:28.446Z,3.69
2018-02-22T16:06:57.923Z,3.66
2018-02-22T16:09:29.915Z,3.66
2018-02-22T16:11:59.863Z,3.68
2018-02-22T16:14:31.209Z,3.69
2018-02-22T16:17:04.063Z,3.69
2018-02-22T16:19:36.720Z,3.71
2018-02-22T16:22:09.776Z,3.71
2018-02-22T16:24:42.766Z,3.69
2018-02-22T16:27:15.796Z,3.71
2018-02-22T16:29:48.136Z,3.70
2018-02-22T16:32:21.857Z,3.70
2018-02-22T16:34:54.499Z,3.71
2018-02-22T16:37:26.728Z,3.69
2018-02-22T16:39:58.741Z,3.69
2018-02-22T16:42:30.722Z,3.71
2018-02-22T16:45:03.717Z,3.70
2018-02-22T16:47:35.760Z,3.69
2018-02-22T16:50:08.772Z,3.71
2018-02-22T16:52:42.138Z,3.68
2018-02-22T16:55:11.855Z,3.70
2018-02-22T16:57:41.342Z,3.70
2018-02-22T17:00:12.683Z,3.69
2018-02-22T17:02:43.975Z,3.72
2018-02-22T17:05:13.217Z,3.71
2018-02-22T17:07:42.893Z,3.69
2018-02-22T17:10:12.448Z,3.69
2018-02-22T17:12:41.922Z,3.68
2018-02-22T17:15:11.080Z,3.68
2018-02-22T17:17:46.794Z,3.66
2018-02-22T17:20:16.294Z,3.67
2018-02-22T17:22:45.872Z,3.68
2018-02-22T17:25:15.234Z,3.69
2018-02-22T17:27:50.298Z,3.69
2018-02-22T17:30:25.314Z,3.70
2018-02-22T17:32:54.901Z,3.69
2018-02-22T17:35:27.814Z,3.69
2018-02-22T17:38:13.744Z,3.70
2018-02-22T17:43:42.394Z,3.68
2018-02-22T17:46:12.677Z,3.68
2018-02-22T17:48:42.793Z,3.68
2018-02-22T17:51:12.673Z,3.67
2018-02-22T17:53:42.664Z,3.68
2018-02-22T17:56:12.811Z,3.68
2018-02-22T17:58:42.870Z,3.66
2018-02-22T18:01:15.782Z,3.66
2018-02-22T18:03:46.641Z,3.65
2018-02-22T18:06:16.611Z,3.64
2018-02-22T18:08:46.404Z,3.65
2018-02-22T18:19:44.760Z,3.64
2018-02-22T18:22:14.773Z,3.64
2018-02-22T18:24:44.482Z,3.64
2018-02-22T18:27:14.685Z,3.77
2018-02-22T18:29:44.391Z,4.42
2018-02-22T18:32:14.241Z,4.96
2018-02-22T18:34:43.716Z,5.25
2018-02-22T18:37:18.777Z,5.42
2018-02-22T18:39:48.864Z,5.59
2018-02-22T18:42:22.023Z,5.67
2018-02-22T18:44:56.678Z,5.73
2018-02-22T18:47:25.730Z,5.77
2018-02-22T18:49:54.844Z,5.94
2018-02-22T18:52:23.894Z,6.03
2018-02-22T18:54:53.284Z,6.07
2018-02-22T18:57:22.794Z,6.15
2018-02-22T18:59:51.871Z,6.13
2018-02-22T19:02:20.857Z,6.18
2018-02-22T19:04:50.063Z,6.22
2018-02-22T19:07:19.370Z,6.24
2018-02-22T19:09:48.795Z,6.27
2018-02-22T19:12:17.976Z,6.27
2018-02-22T19:14:47.303Z,6.28
2018-02-22T19:17:16.838Z,6.26
2018-02-22T19:19:45.951Z,6.39
2018-02-22T19:22:14.846Z,6.31
2018-02-22T19:24:43.858Z,6.39
2018-02-22T19:27:13.099Z,6.39
2018-02-22T19:29:42.721Z,6.34
2018-02-22T19:32:11.895Z,6.40
2018-02-22T19:34:41.041Z,6.28
2018-02-22T19:37:10.376Z,6.32
2018-02-22T19:39:39.758Z,6.39
2018-02-22T19:42:08.736Z,6.32
2018-02-22T19:44:37.773Z,6.35
2018-02-22T19:47:08.806Z,6.34
2018-02-22T19:49:37.877Z,6.39
2018-02-22T19:52:06.851Z,6.39
2018-02-22T19:54:35.752Z,6.37
2018-02-22T19:57:04.766Z,6.29
2018-02-22T19:59:33.780Z,6.30
2018-02-22T20:02:02.768Z,6.32
2018-02-22T20:04:32.074Z,6.28
2018-02-22T20:07:01.278Z,6.31
2018-02-22T20:09:30.782Z,6.31
2018-02-22T20:11:59.921Z,6.23
2018-02-22T20:14:29.095Z,6.20
2018-02-22T20:16:58.125Z,6.23
2018-02-22T20:19:28.783Z,6.22
2018-02-22T20:21:58.033Z,6.21
2018-02-22T20:24:27.405Z,6.18
2018-02-22T20:26:56.734Z,6.12
2018-02-22T20:29:25.746Z,6.16
2018-02-22T20:31:54.742Z,6.14
2018-02-22T20:34:23.765Z,6.16
2018-02-22T20:36:52.833Z,6.08
2018-02-22T20:39:21.915Z,6.02
2018-02-22T20:41:50.768Z,6.03
2018-02-22T20:44:19.764Z,6.07
2018-02-22T20:46:48.744Z,6.01
2018-02-22T20:49:17.770Z,6.01
2018-02-22T20:51:58.739Z,5.96
2018-02-22T20:54:27.762Z,5.93
2018-02-22T20:56:56.759Z,5.94
2018-02-22T20:59:26.053Z,5.91
2018-02-22T21:01:55.096Z,5.89
2018-02-22T21:04:24.467Z,5.88
2018-02-22T21:07:00.756Z,5.90
2018-02-22T21:09:29.774Z,5.85
2018-02-22T21:12:01.474Z,5.84
2018-02-22T21:14:33.731Z,5.87
2018-02-22T21:17:02.770Z,5.84
2018-02-22T21:19:31.746Z,5.81
2018-02-22T21:22:00.752Z,5.78
2018-02-22T21:24:29.863Z,5.76
2018-02-22T21:26:58.790Z,5.78
2018-02-22T21:29:28.246Z,5.79
2018-02-22T21:31:57.648Z,5.71
2018-02-22T21:34:26.712Z,5.72
2018-02-22T21:36:55.791Z,5.67
2018-02-22T21:39:24.805Z,5.66
2018-02-22T21:41:53.770Z,5.66
2018-02-22T21:44:22.723Z,5.63
2018-02-22T21:46:52.060Z,5.62
2018-02-22T21:49:21.461Z,5.63
2018-02-22T21:51:50.717Z,5.60
2018-02-22T21:54:19.740Z,5.58
2018-02-22T21:56:48.745Z,5.57
2018-02-22T21:59:17.746Z,5.57
2018-02-22T22:01:46.774Z,5.52
2018-02-22T22:04:15.762Z,5.54
2018-02-22T22:06:44.737Z,5.50
2018-02-22T22:09:13.756Z,5.50
2018-02-22T22:11:42.745Z,5.45
2018-02-22T22:14:11.748Z,5.43
2018-02-22T22:16:40.756Z,5.46
2018-02-22T22:19:12.974Z,5.43
2018-02-22T22:21:42.026Z,5.44
2018-02-22T22:24:11.054Z,5.41
2018-02-22T22:26:40.522Z,5.40
2018-02-22T22:29:09.774Z,5.38
2018-02-22T22:31:38.756Z,5.35
2018-02-22T22:34:07.793Z,5.37
2018-02-22T22:36:36.837Z,5.33
2018-02-22T22:39:05.748Z,5.31
2018-02-22T22:41:34.791Z,5.28
2018-02-22T22:44:03.803Z,5.25
2018-02-22T22:46:32.773Z,5.25
2018-02-22T22:49:01.809Z,5.24
2018-02-22T22:51:30.768Z,5.22
2018-02-22T22:53:59.817Z,5.18
2018-02-22T22:56:28.786Z,5.16
2018-02-22T22:58:57.835Z,5.14
2018-02-22T23:01:26.784Z,5.11
2018-02-22T23:03:55.754Z,5.07
2018-02-22T23:06:24.760Z,5.06
2018-02-22T23:08:53.755Z,5.03
2018-02-22T23:11:23.680Z,5.03
2018-02-22T23:13:52.768Z,5.03
2018-02-22T23:16:21.792Z,4.99
2018-02-22T23:18:50.861Z,4.97
2018-02-22T23:21:19.775Z,4.95
2018-02-22T23:23:48.781Z,4.94
2018-02-22T23:26:17.887Z,4.91
2018-02-22T23:28:46.831Z,4.92
2018-02-22T23:31:15.772Z,4.91
2018-02-22T23:33:44.745Z,4.87
2018-02-22T23:36:13.760Z,4.86
2018-02-22T23:38:42.783Z,4.81
2018-02-22T23:41:15.688Z,4.81
2018-02-22T23:43:44.757Z,4.81
2018-02-22T23:46:13.739Z,4.78
2018-02-22T23:48:42.761Z,4.73
2018-02-22T23:51:14.349Z,4.72
2018-02-22T23:53:43.739Z,4.66
2018-02-22T23:56:12.740Z,4.68
2018-02-22T23:58:41.771Z,4.69
